Time;durP1;ratioP1;P1;durP2;ratioP2;P2;SDS_P1;SDS_P2;PMS_P1;PMS_P2;Temp;Humidity;BMP_temperature;BMP_pressure;BME280_temperature;BME280_humidity;BME280_pressure;Samples;Min_cycle;Max_cycle;Signal;HPM_P1;HPM_P2
2021/03/08 00:02:00;;;;;;;3.33;2.23;;;1.50;99.90;;;;;;4952725;28;20224;-74
2021/03/08 00:04:26;;;;;;;2.93;1.97;;;1.40;99.90;;;;;;4952437;28;20265;-76
2021/03/08 00:06:53;;;;;;;3.80;2.23;;;1.40;99.90;;;;;;4953174;29;20224;-76
2021/03/08 00:09:19;;;;;;;3.77;2.30;;;1.40;99.90;;;;;;4956111;28;20232;-75
2021/03/08 00:11:46;;;;;;;3.87;2.27;;;1.30;99.90;;;;;;4951897;28;20217;-75
2021/03/08 00:14:13;;;;;;;4.80;2.70;;;1.20;99.90;;;;;;4951675;29;20229;-74
2021/03/08 00:16:40;;;;;;;4.93;2.57;;;1.20;99.90;;;;;;4951943;29;20206;-76
2021/03/08 00:19:07;;;;;;;4.50;2.63;;;1.10;99.90;;;;;;4952245;28;20244;-76
2021/03/08 00:21:33;;;;;;;3.83;2.37;;;1.10;99.90;;;;;;4950785;28;20225;-76
2021/03/08 00:24:00;;;;;;;3.43;2.40;;;1.00;99.90;;;;;;4953893;28;20205;-75
2021/03/08 00:26:26;;;;;;;5.10;3.00;;;1.00;99.90;;;;;;4950528;28;20218;-76
2021/03/08 00:28:55;;;;;;;4.03;2.27;;;0.90;99.90;;;;;;4951463;29;20233;-76
2021/03/08 00:31:21;;;;;;;4.07;2.47;;;0.90;99.90;;;;;;4952522;29;20229;-76
2021/03/08 00:33:47;;;;;;;3.43;2.47;;;0.80;99.90;;;;;;4954164;28;20268;-78
2021/03/08 00:36:14;;;;;;;5.27;2.37;;;0.80;99.90;;;;;;4954167;28;20558;-76
2021/03/08 00:38:41;;;;;;;5.27;3.03;;;0.70;99.90;;;;;;4954143;28;20655;-76
2021/03/08 00:41:07;;;;;;;4.40;3.00;;;0.70;99.90;;;;;;4954004;29;20209;-76
2021/03/08 00:43:33;;;;;;;6.50;3.00;;;0.70;99.90;;;;;;4949977;28;20206;-76
2021/03/08 00:46:01;;;;;;;4.70;2.60;;;0.60;99.90;;;;;;4955370;28;20205;-74
2021/03/08 00:48:27;;;;;;;5.47;3.20;;;0.60;99.90;;;;;;4950297;28;20229;-75
2021/03/08 00:50:54;;;;;;;5.53;3.13;;;0.60;99.90;;;;;;4949298;29;20221;-75
2021/03/08 00:53:20;;;;;;;3.57;2.97;;;0.50;99.90;;;;;;4954922;28;20233;-75
2021/03/08 00:55:49;;;;;;;5.30;3.47;;;0.50;99.90;;;;;;4950056;28;20255;-75
2021/03/08 00:58:16;;;;;;;5.00;3.37;;;0.50;99.90;;;;;;4952320;28;20341;-75
2021/03/08 01:00:42;;;;;;;4.20;2.97;;;0.50;99.90;;;;;;4950935;28;20566;-76
2021/03/08 01:03:10;;;;;;;6.17;3.10;;;0.50;99.90;;;;;;4952443;29;20210;-75
2021/03/08 01:05:37;;;;;;;3.80;3.03;;;0.50;99.90;;;;;;4950346;29;20233;-77
2021/03/08 01:08:05;;;;;;;4.63;3.20;;;0.50;99.90;;;;;;4953088;28;20670;-76
2021/03/08 01:10:32;;;;;;;4.60;3.20;;;0.40;99.90;;;;;;4952142;28;20206;-76
2021/03/08 01:12:59;;;;;;;7.33;3.60;;;0.40;99.90;;;;;;4950503;29;20221;-77
2021/03/08 01:15:25;;;;;;;6.13;3.57;;;0.40;99.90;;;;;;4952288;28;20237;-77
2021/03/08 01:17:52;;;;;;;5.37;3.53;;;0.30;99.90;;;;;;4949395;29;20236;-77
2021/03/08 01:20:21;;;;;;;4.80;3.37;;;0.30;99.90;;;;;;4954252;28;20209;-76
2021/03/08 01:22:48;;;;;;;4.80;2.90;;;0.20;99.90;;;;;;4946446;29;20619;-76
2021/03/08 01:25:17;;;;;;;5.13;3.47;;;0.20;99.90;;;;;;4950970;28;20961;-76
2021/03/08 01:27:44;;;;;;;5.90;4.10;;;0.20;99.90;;;;;;4951218;28;20224;-76
2021/03/08 01:30:14;;;;;;;8.30;3.50;;;0.20;99.90;;;;;;4953209;28;20279;-75
2021/03/08 01:32:43;;;;;;;4.97;3.13;;;0.10;99.90;;;;;;4952173;28;20291;-75
2021/03/08 01:35:10;;;;;;;4.60;3.50;;;0.10;99.90;;;;;;4952626;28;20210;-75
2021/03/08 01:37:38;;;;;;;6.47;2.80;;;0.10;99.90;;;;;;4950294;29;20224;-76
2021/03/08 01:40:10;;;;;;;6.20;3.37;;;0.10;99.90;;;;;;4955230;28;20209;-74
2021/03/08 01:42:39;;;;;;;4.37;3.30;;;0.10;99.90;;;;;;4947203;29;20212;-76
2021/03/08 01:45:07;;;;;;;7.43;3.50;;;0.10;99.90;;;;;;4950641;28;20220;-75
2021/03/08 01:47:34;;;;;;;4.10;3.03;;;0.10;99.90;;;;;;4948048;28;20632;-76
2021/03/08 01:50:00;;;;;;;5.70;3.77;;;0.10;99.90;;;;;;4950826;28;20237;-76
2021/03/08 01:52:27;;;;;;;6.63;3.43;;;0.10;99.90;;;;;;4948057;29;20268;-76
2021/03/08 01:54:58;;;;;;;6.20;3.57;;;0.10;99.90;;;;;;4947787;29;20554;-76
2021/03/08 01:57:25;;;;;;;4.40;3.43;;;0.00;99.90;;;;;;4950352;29;20213;-77
2021/03/08 01:59:53;;;;;;;5.43;3.77;;;0.00;99.90;;;;;;4954045;28;20205;-76
2021/03/08 02:02:20;;;;;;;5.47;3.50;;;0.00;99.90;;;;;;4953942;28;20626;-73
2021/03/08 02:04:47;;;;;;;4.67;3.13;;;0.00;99.90;;;;;;4952553;28;20218;-74
2021/03/08 02:07:18;;;;;;;7.10;3.73;;;-0.10;99.90;;;;;;4956623;28;20216;-76
2021/03/08 02:09:45;;;;;;;6.17;3.70;;;0.00;99.90;;;;;;4949210;28;20317;-74
2021/03/08 02:12:19;;;;;;;5.73;3.60;;;0.00;99.90;;;;;;4943853;29;20361;-75
2021/03/08 02:15:08;;;;;;;5.67;3.77;;;-0.20;99.90;;;;;;4952260;28;20723;-74
2021/03/08 02:17:39;;;;;;;5.50;3.90;;;-0.20;99.90;;;;;;4952895;28;20237;-75
2021/03/08 02:20:48;;;;;;;5.50;3.60;;;-0.20;99.90;;;;;;4954422;29;20267;-75
2021/03/08 02:23:56;;;;;;;5.97;3.67;;;-0.20;99.90;;;;;;4954116;29;20659;-75
2021/03/08 02:26:38;;;;;;;5.93;3.40;;;-0.20;99.90;;;;;;4950656;28;20308;-74
2021/03/08 02:29:35;;;;;;;5.53;3.47;;;-0.20;99.90;;;;;;4950236;29;20228;-75
2021/03/08 02:32:07;;;;;;;6.13;3.30;;;-0.20;99.90;;;;;;4945376;28;20237;-75
2021/03/08 02:34:39;;;;;;;5.50;3.13;;;-0.20;99.90;;;;;;4954169;28;20647;-74
2021/03/08 02:37:11;;;;;;;7.27;3.93;;;-0.30;99.90;;;;;;4952088;29;20329;-75
2021/03/08 02:39:43;;;;;;;5.13;3.70;;;-0.30;99.90;;;;;;4949413;28;20205;-74
2021/03/08 02:42:16;;;;;;;5.73;3.70;;;-0.30;99.90;;;;;;4944375;28;20215;-76
2021/03/08 02:44:47;;;;;;;6.93;3.37;;;-0.30;99.90;;;;;;4952664;29;20300;-75
2021/03/08 02:47:18;;;;;;;5.40;3.60;;;-0.40;99.90;;;;;;4949541;28;20304;-75
2021/03/08 02:49:46;;;;;;;5.83;4.10;;;-0.40;99.90;;;;;;4948752;29;20222;-74
2021/03/08 02:52:16;;;;;;;5.10;3.67;;;-0.40;99.90;;;;;;4952532;28;20225;-75
2021/03/08 02:54:50;;;;;;;5.67;3.43;;;-0.40;99.90;;;;;;4952880;28;20212;-75
2021/03/08 02:57:21;;;;;;;6.93;3.83;;;-0.40;99.90;;;;;;4952549;29;20674;-75
2021/03/08 02:59:50;;;;;;;5.40;3.87;;;-0.40;99.90;;;;;;4949781;28;20242;-75
2021/03/08 03:02:19;;;;;;;6.30;4.03;;;-0.40;99.90;;;;;;4948283;28;20653;-75
2021/03/08 03:04:49;;;;;;;6.30;4.40;;;-0.50;99.90;;;;;;4950099;28;20201;-76
2021/03/08 03:07:17;;;;;;;7.40;3.90;;;-0.50;99.90;;;;;;4951296;29;20221;-75
2021/03/08 03:09:45;;;;;;;5.30;3.50;;;-0.50;99.90;;;;;;4949748;28;20221;-75
2021/03/08 03:12:13;;;;;;;8.00;4.03;;;-0.40;99.90;;;;;;4954629;28;20702;-74
2021/03/08 03:14:42;;;;;;;7.93;4.83;;;-0.50;99.90;;;;;;4949727;28;20234;-74
2021/03/08 03:17:11;;;;;;;7.33;4.13;;;-0.50;99.90;;;;;;4948901;28;20214;-75
2021/03/08 03:19:42;;;;;;;5.87;4.10;;;-0.50;99.90;;;;;;4951573;28;20220;-75
2021/03/08 03:22:11;;;;;;;6.40;4.10;;;-0.50;99.90;;;;;;4956672;28;20197;-74
2021/03/08 03:24:41;;;;;;;6.20;4.23;;;-0.50;99.90;;;;;;4956085;29;20283;-75
2021/03/08 03:27:08;;;;;;;7.73;4.30;;;-0.40;99.90;;;;;;4956210;28;20217;-74
2021/03/08 03:29:38;;;;;;;6.40;4.33;;;-0.40;99.90;;;;;;4950720;28;20773;-75
2021/03/08 03:32:06;;;;;;;5.97;4.20;;;-0.40;99.90;;;;;;4954788;28;20721;-75
2021/03/08 03:34:33;;;;;;;5.03;4.07;;;-0.50;99.90;;;;;;4952348;29;20244;-75
2021/03/08 03:37:01;;;;;;;6.43;4.07;;;-0.50;99.90;;;;;;4955760;28;20288;-75
2021/03/08 03:39:29;;;;;;;6.93;4.60;;;-0.50;99.90;;;;;;4953260;28;20253;-75
2021/03/08 03:41:56;;;;;;;9.47;4.83;;;-0.50;99.90;;;;;;4956344;28;20212;-74
2021/03/08 03:44:23;;;;;;;7.17;4.63;;;-0.50;99.90;;;;;;4954848;28;20226;-75
2021/03/08 03:46:49;;;;;;;12.50;4.40;;;-0.60;99.90;;;;;;4956273;28;20215;-75
2021/03/08 03:49:17;;;;;;;5.87;4.17;;;-0.70;99.90;;;;;;4953930;28;20302;-75
2021/03/08 03:51:44;;;;;;;6.67;4.07;;;-0.70;99.90;;;;;;4948865;28;20652;-74
2021/03/08 03:54:12;;;;;;;5.23;4.20;;;-0.70;99.90;;;;;;4950078;28;20292;-75
2021/03/08 03:56:47;;;;;;;6.33;4.30;;;-0.70;99.90;;;;;;4955091;29;20236;-74
2021/03/08 03:59:21;;;;;;;6.67;4.33;;;-0.80;99.90;;;;;;4957400;28;20230;-74
2021/03/08 04:01:54;;;;;;;7.87;4.60;;;-0.80;99.90;;;;;;4953558;28;20224;-75
2021/03/08 04:04:26;;;;;;;6.70;3.87;;;-0.80;99.90;;;;;;4953159;29;20351;-75
2021/03/08 04:06:54;;;;;;;5.30;4.00;;;-0.90;99.90;;;;;;4954943;29;20228;-75
2021/03/08 04:09:23;;;;;;;6.03;4.27;;;-0.90;99.90;;;;;;4954395;28;20225;-75
2021/03/08 04:11:53;;;;;;;7.40;4.33;;;-0.90;99.90;;;;;;4950486;29;20271;-74
2021/03/08 04:14:23;;;;;;;6.20;4.53;;;-0.90;99.90;;;;;;4953501;28;20236;-75
2021/03/08 04:16:52;;;;;;;8.30;4.77;;;-0.90;99.90;;;;;;4950228;29;20252;-75
2021/03/08 04:19:23;;;;;;;5.97;4.47;;;-1.00;99.90;;;;;;4953759;28;20232;-75
2021/03/08 04:21:52;;;;;;;7.93;5.37;;;-1.00;99.90;;;;;;4953666;28;20202;-76
2021/03/08 04:24:21;;;;;;;8.93;5.20;;;-1.00;99.90;;;;;;4954292;28;20556;-75
2021/03/08 04:26:49;;;;;;;8.67;5.40;;;-1.00;99.90;;;;;;4953431;29;20216;-75
2021/03/08 04:29:17;;;;;;;6.57;4.53;;;-1.00;99.90;;;;;;4951208;28;20295;-75
2021/03/08 04:31:44;;;;;;;6.97;4.97;;;-1.10;99.90;;;;;;4953341;29;20217;-76
2021/03/08 04:34:11;;;;;;;11.43;5.10;;;-1.10;99.90;;;;;;4978643;28;20656;-75
2021/03/08 04:36:39;;;;;;;5.20;4.17;;;-1.10;99.90;;;;;;4951679;29;20209;-74
2021/03/08 04:39:06;;;;;;;7.30;5.00;;;-1.10;99.90;;;;;;4953138;28;20228;-75
2021/03/08 04:41:33;;;;;;;7.90;4.70;;;-1.00;99.90;;;;;;4954443;28;20293;-74
2021/03/08 04:44:02;;;;;;;6.87;4.27;;;-1.00;99.90;;;;;;4954796;28;20206;-74
2021/03/08 04:46:30;;;;;;;9.87;4.80;;;-1.10;99.90;;;;;;4950389;28;20646;-75
2021/03/08 04:48:57;;;;;;;5.00;3.97;;;-1.10;99.90;;;;;;4953283;29;20232;-75
2021/03/08 04:51:25;;;;;;;7.97;4.43;;;-1.10;99.90;;;;;;4949935;29;20284;-75
2021/03/08 04:53:53;;;;;;;7.77;4.80;;;-1.10;99.90;;;;;;4948894;29;20734;-75
2021/03/08 04:56:21;;;;;;;7.20;4.63;;;-1.10;99.90;;;;;;4954689;28;20222;-76
2021/03/08 04:58:50;;;;;;;8.83;5.10;;;-1.10;99.90;;;;;;4953941;28;20274;-74
2021/03/08 05:01:21;;;;;;;8.27;4.70;;;-1.00;99.90;;;;;;4952805;28;20218;-74
2021/03/08 05:03:49;;;;;;;7.40;4.40;;;-1.10;99.90;;;;;;4951909;28;20212;-75
2021/03/08 05:06:17;;;;;;;6.70;4.37;;;-1.10;99.90;;;;;;4952581;29;20332;-75
2021/03/08 05:08:46;;;;;;;7.47;4.20;;;-1.20;99.90;;;;;;4948291;28;20237;-74
2021/03/08 05:11:13;;;;;;;10.43;4.90;;;-1.10;99.90;;;;;;4950880;28;20209;-74
2021/03/08 05:13:41;;;;;;;6.50;4.93;;;-1.20;99.90;;;;;;4946086;28;20596;-74
2021/03/08 05:16:12;;;;;;;5.83;4.27;;;-1.10;99.90;;;;;;4949933;29;20835;-75
2021/03/08 05:18:40;;;;;;;8.07;4.63;;;-1.10;99.90;;;;;;4948928;28;20285;-75
2021/03/08 05:21:08;;;;;;;9.13;5.40;;;-1.10;99.90;;;;;;4954752;28;20325;-74
2021/03/08 05:23:35;;;;;;;8.13;4.60;;;-1.10;99.90;;;;;;4949838;29;20334;-74
2021/03/08 05:26:03;;;;;;;6.90;4.40;;;-1.10;99.90;;;;;;4951320;29;20240;-73
2021/03/08 05:28:31;;;;;;;9.30;4.87;;;-1.00;99.90;;;;;;4952584;28;20581;-74
2021/03/08 05:31:00;;;;;;;9.13;5.03;;;-1.00;99.90;;;;;;4949839;28;20281;-75
2021/03/08 05:33:30;;;;;;;5.63;4.20;;;-1.00;99.90;;;;;;4952215;28;20209;-75
2021/03/08 05:35:59;;;;;;;7.20;4.43;;;-1.00;99.90;;;;;;4953059;28;20269;-75
2021/03/08 05:38:28;;;;;;;7.87;4.77;;;-1.00;99.90;;;;;;4952378;28;20711;-74
2021/03/08 05:41:03;;;;;;;9.47;4.40;;;-0.90;99.90;;;;;;4950451;28;20210;-74
2021/03/08 05:43:32;;;;;;;7.27;4.33;;;-0.90;99.90;;;;;;4949967;28;20205;-75
2021/03/08 05:46:06;;;;;;;7.03;4.10;;;-0.80;99.90;;;;;;4950209;29;20213;-76
2021/03/08 05:49:16;;;;;;;7.10;4.03;;;-0.70;99.90;;;;;;4950073;28;20243;-75
2021/03/08 05:52:12;;;;;;;7.03;4.27;;;-0.70;99.90;;;;;;4951884;28;20217;-75
2021/03/08 05:55:15;;;;;;;7.13;4.30;;;-0.50;99.90;;;;;;4944742;28;20214;-75
2021/03/08 05:57:51;;;;;;;5.33;3.83;;;-0.40;99.90;;;;;;4950026;29;20634;-75
2021/03/08 06:00:26;;;;;;;7.10;3.70;;;-0.30;99.90;;;;;;4950724;28;20228;-75
2021/03/08 06:02:57;;;;;;;6.23;3.13;;;-0.20;99.90;;;;;;4950399;28;20204;-74
2021/03/08 06:05:53;;;;;;;5.93;3.53;;;-0.20;99.90;;;;;;4951320;29;20269;-75
2021/03/08 06:08:39;;;;;;;8.03;3.77;;;-0.10;99.90;;;;;;4951271;28;20570;-75
2021/03/08 06:11:08;;;;;;;10.13;3.93;;;-0.10;99.90;;;;;;4947860;28;20240;-75
2021/03/08 06:13:43;;;;;;;8.43;4.07;;;0.00;99.90;;;;;;4953959;28;20229;-78
2021/03/08 06:16:16;;;;;;;5.63;3.50;;;0.10;99.90;;;;;;4949526;28;20202;-78
2021/03/08 06:18:46;;;;;;;10.77;3.80;;;0.60;99.90;;;;;;4952473;28;20249;-78
2021/03/08 06:21:14;;;;;;;7.03;3.73;;;0.80;99.90;;;;;;4955948;28;20208;-74
2021/03/08 06:23:42;;;;;;;6.63;3.70;;;0.90;99.90;;;;;;4955574;28;20209;-72
2021/03/08 06:26:10;;;;;;;5.50;3.13;;;0.80;99.90;;;;;;4955017;28;20301;-74
2021/03/08 06:28:38;;;;;;;6.27;3.70;;;0.80;99.90;;;;;;4956120;28;20733;-75
2021/03/08 06:31:05;;;;;;;6.87;3.33;;;0.80;99.90;;;;;;4957049;28;20205;-75
2021/03/08 06:33:31;;;;;;;6.30;3.43;;;0.90;99.90;;;;;;4955964;29;20305;-74
2021/03/08 06:36:00;;;;;;;6.53;3.43;;;0.90;99.90;;;;;;4955619;28;20205;-76
2021/03/08 06:38:27;;;;;;;6.40;4.10;;;1.00;99.90;;;;;;4963649;29;20218;-75
2021/03/08 06:40:54;;;;;;;7.37;3.83;;;1.00;99.90;;;;;;4968480;28;20201;-75
2021/03/08 06:43:25;;;;;;;7.07;3.67;;;1.00;99.90;;;;;;4960180;28;20269;-74
2021/03/08 06:45:52;;;;;;;6.20;3.23;;;1.10;99.90;;;;;;4970502;29;20201;-75
2021/03/08 06:48:19;;;;;;;4.73;3.47;;;1.30;99.90;;;;;;4962169;28;20210;-73
2021/03/08 06:50:45;;;;;;;5.57;3.60;;;1.40;99.90;;;;;;4960900;28;20228;-75
2021/03/08 06:53:28;;;;;;;5.80;3.50;;;1.40;99.90;;;;;;4961883;28;20292;-74
2021/03/08 06:56:13;;;;;;;6.13;3.57;;;1.40;99.90;;;;;;4958242;29;20240;-76
2021/03/08 06:58:40;;;;;;;8.57;3.83;;;1.40;99.90;;;;;;4961715;28;20239;-72
2021/03/08 07:01:29;;;;;;;8.50;3.50;;;1.50;99.90;;;;;;4955904;28;20213;-73
2021/03/08 07:03:56;;;;;;;6.53;3.60;;;1.90;99.90;;;;;;4950444;28;20219;-72
2021/03/08 07:06:23;;;;;;;5.73;3.10;;;2.20;99.90;;;;;;4948778;28;20694;-72
2021/03/08 07:08:50;;;;;;;5.00;3.30;;;2.30;99.90;;;;;;4952879;28;20695;-71
2021/03/08 07:11:19;;;;;;;5.60;2.80;;;2.30;99.90;;;;;;4953988;28;20293;-71
2021/03/08 07:13:46;;;;;;;5.50;3.00;;;2.20;99.90;;;;;;4946515;29;20225;-71
2021/03/08 07:16:12;;;;;;;5.53;3.27;;;2.20;99.90;;;;;;4946539;28;20214;-71
2021/03/08 07:18:41;;;;;;;5.10;2.80;;;2.10;99.90;;;;;;4954717;28;20293;-72
2021/03/08 07:21:22;;;;;;;5.43;2.73;;;2.20;99.90;;;;;;4953415;28;20295;-76
2021/03/08 07:23:51;;;;;;;5.37;3.07;;;2.20;99.90;;;;;;4956436;28;20214;-79
2021/03/08 07:26:18;;;;;;;5.80;3.20;;;2.50;99.90;;;;;;4946690;28;20290;-74
2021/03/08 07:29:05;;;;;;;5.60;2.93;;;2.90;99.90;;;;;;4957672;28;20224;-71
2021/03/08 07:31:36;;;;;;;4.23;2.70;;;3.30;99.90;;;;;;4959375;28;20648;-76
2021/03/08 07:34:05;;;;;;;3.63;2.60;;;3.70;99.90;;;;;;4950269;29;20284;-72
2021/03/08 07:36:31;;;;;;;4.80;2.70;;;3.80;99.90;;;;;;4951823;28;20228;-73
2021/03/08 07:38:59;;;;;;;5.90;3.50;;;3.70;99.90;;;;;;4951458;28;20209;-74
2021/03/08 07:41:25;;;;;;;5.17;2.63;;;3.60;99.90;;;;;;4945022;28;20210;-76
2021/03/08 07:44:05;;;;;;;5.07;3.10;;;3.70;99.90;;;;;;4954793;28;20670;-74
2021/03/08 07:46:32;;;;;;;6.67;2.43;;;3.70;99.90;;;;;;4947899;28;20233;-76
2021/03/08 07:49:00;;;;;;;7.03;3.03;;;3.70;99.90;;;;;;4949442;28;20289;-79
2021/03/08 07:51:28;;;;;;;4.57;2.53;;;3.70;99.90;;;;;;4958240;29;20198;-75
2021/03/08 07:54:01;;;;;;;4.90;3.00;;;3.80;99.90;;;;;;4956236;28;20300;-74
2021/03/08 07:56:28;;;;;;;8.63;2.93;;;3.80;99.90;;;;;;4951107;28;20249;-77
2021/03/08 07:58:55;;;;;;;4.20;2.50;;;3.80;99.90;;;;;;4954492;28;20384;-73
2021/03/08 08:01:24;;;;;;;4.80;3.00;;;3.80;99.90;;;;;;4941723;29;20344;-75
2021/03/08 08:03:51;;;;;;;5.00;3.10;;;3.80;99.90;;;;;;4945766;28;20312;-73
2021/03/08 08:06:20;;;;;;;7.07;2.97;;;3.90;99.90;;;;;;4949395;28;20301;-74
2021/03/08 08:08:50;;;;;;;6.00;3.13;;;4.00;99.90;;;;;;4943891;29;20214;-80
2021/03/08 08:11:18;;;;;;;4.83;2.87;;;4.20;99.90;;;;;;4950704;29;20685;-74
2021/03/08 08:13:48;;;;;;;6.87;3.03;;;4.40;99.90;;;;;;4949723;28;20236;-74
2021/03/08 08:16:15;;;;;;;3.10;2.43;;;4.40;99.90;;;;;;4944918;28;20225;-76
2021/03/08 08:18:43;;;;;;;3.63;2.43;;;4.50;99.90;;;;;;4953377;28;20248;-73
2021/03/08 08:21:14;;;;;;;4.93;2.53;;;4.30;99.90;;;;;;4952736;28;20216;-76
2021/03/08 08:23:45;;;;;;;6.20;2.60;;;4.30;99.90;;;;;;4953419;28;20666;-78
2021/03/08 08:26:15;;;;;;;3.90;2.20;;;4.50;99.90;;;;;;4949908;28;20200;-78
2021/03/08 08:28:44;;;;;;;5.40;2.30;;;4.70;99.80;;;;;;4948882;28;20303;-76
2021/03/08 08:31:11;;;;;;;3.90;2.40;;;4.80;99.10;;;;;;4951992;28;20248;-77
2021/03/08 08:33:37;;;;;;;4.27;2.07;;;5.10;98.90;;;;;;4952354;28;20312;-77
2021/03/08 08:36:15;;;;;;;4.67;2.40;;;5.30;97.90;;;;;;4953157;28;20630;-77
2021/03/08 08:39:03;;;;;;;4.47;2.30;;;5.70;97.70;;;;;;4953360;28;20292;-76
2021/03/08 08:41:32;;;;;;;5.93;2.67;;;5.90;95.80;;;;;;4949665;28;20221;-77
2021/03/08 08:44:38;;;;;;;5.47;2.50;;;5.90;94.40;;;;;;4950675;28;20692;-75
2021/03/08 08:47:20;;;;;;;6.83;2.37;;;5.90;93.20;;;;;;4949078;29;20212;-73
2021/03/08 08:49:48;;;;;;;3.13;1.90;;;6.10;92.80;;;;;;4946249;28;20226;-74
2021/03/08 08:52:15;;;;;;;13.47;7.70;;;6.30;90.90;;;;;;4949839;28;20223;-75
2021/03/08 08:54:55;;;;;;;4.37;2.40;;;6.50;90.20;;;;;;4951892;28;20208;-76
2021/03/08 08:57:23;;;;;;;4.97;1.87;;;6.70;87.60;;;;;;4954321;28;20224;-77
2021/03/08 09:00:26;;;;;;;3.07;1.70;;;6.90;83.20;;;;;;4950784;28;20214;-74
2021/03/08 09:02:52;;;;;;;2.70;1.47;;;7.20;79.90;;;;;;4949220;28;20248;-72
2021/03/08 09:05:41;;;;;;;3.17;1.63;;;7.40;76.20;;;;;;4953488;28;20205;-73
2021/03/08 09:08:52;;;;;;;2.83;1.70;;;7.60;73.50;;;;;;4953071;28;20292;-73
2021/03/08 09:11:43;;;;;;;2.40;1.63;;;7.90;68.80;;;;;;4943400;28;20287;-73
2021/03/08 09:14:37;;;;;;;1.93;1.23;;;7.70;65.70;;;;;;4950933;28;20221;-72
2021/03/08 09:17:19;;;;;;;3.53;1.30;;;7.70;80.00;;;;;;4951074;28;20284;-73
2021/03/08 09:19:48;;;;;;;3.50;1.77;;;9.00;91.80;;;;;;4947764;28;20239;-73
2021/03/08 09:22:33;;;;;;;3.03;1.47;;;10.20;61.50;;;;;;4948367;28;20213;-74
2021/03/08 09:25:11;;;;;;;3.30;1.77;;;12.70;63.30;;;;;;4951709;28;20217;-73
2021/03/08 09:27:40;;;;;;;2.30;1.50;;;15.70;47.60;;;;;;4953222;28;20343;-72
2021/03/08 09:30:10;;;;;;;2.90;1.50;;;16.10;41.30;;;;;;4952555;28;20259;-74
2021/03/08 09:32:37;;;;;;;3.20;1.20;;;15.20;39.30;;;;;;4949603;28;20304;-72
2021/03/08 09:35:06;;;;;;;4.53;1.77;;;14.00;38.80;;;;;;4944794;28;20209;-72
2021/03/08 09:37:33;;;;;;;3.17;1.90;;;12.50;39.30;;;;;;4936542;28;20217;-69
2021/03/08 09:40:00;;;;;;;3.30;1.50;;;11.10;41.40;;;;;;4945632;28;20205;-72
2021/03/08 09:42:34;;;;;;;3.87;2.07;;;10.00;43.90;;;;;;4955209;28;20245;-72
2021/03/08 09:45:01;;;;;;;3.70;1.70;;;9.10;46.80;;;;;;4943156;28;20214;-73
2021/03/08 09:47:39;;;;;;;5.03;2.27;;;8.50;48.40;;;;;;4940134;28;20761;-72
2021/03/08 09:50:07;;;;;;;3.37;1.20;;;8.10;50.30;;;;;;4944329;28;20221;-75
2021/03/08 09:52:36;;;;;;;3.07;1.90;;;7.90;51.50;;;;;;4940236;29;20313;-71
2021/03/08 09:55:03;;;;;;;3.13;1.80;;;8.60;56.10;;;;;;4939755;28;20238;-72
2021/03/08 09:57:35;;;;;;;3.80;2.10;;;9.20;53.60;;;;;;4942427;28;20256;-74
2021/03/08 10:00:06;;;;;;;3.63;2.00;;;10.10;53.10;;;;;;4945389;28;20210;-76
2021/03/08 10:02:33;;;;;;;3.30;2.20;;;11.70;51.40;;;;;;4947373;28;20209;-76
2021/03/08 10:05:03;;;;;;;4.13;1.80;;;13.00;46.50;;;;;;4941272;28;20210;-76
2021/03/08 10:07:30;;;;;;;2.90;2.03;;;14.30;46.20;;;;;;4949508;28;20656;-74
2021/03/08 10:10:13;;;;;;;3.10;1.90;;;16.60;44.20;;;;;;4938224;28;20260;-74
2021/03/08 10:12:40;;;;;;;5.30;2.13;;;20.50;41.50;;;;;;4947203;28;20296;-73
2021/03/08 10:15:09;;;;;;;5.70;1.77;;;23.00;35.40;;;;;;4938708;29;20260;-75
2021/03/08 10:17:51;;;;;;;6.55;2.35;;;25.50;31.50;;;;;;4937184;29;20316;-75
2021/03/08 10:20:19;;;;;;;5.80;2.33;;;28.50;28.90;;;;;;4951499;28;20670;-75
2021/03/08 10:22:45;;;;;;;4.15;2.10;;;31.60;25.20;;;;;;4943513;28;20297;-74
2021/03/08 10:25:22;;;;;;;4.95;2.20;;;32.20;23.40;;;;;;4947362;28;20237;-74
2021/03/08 10:27:53;;;;;;;5.72;2.70;;;32.40;23.10;;;;;;4943660;28;20288;-73
2021/03/08 10:30:21;;;;;;;6.30;2.40;;;32.90;22.10;;;;;;4944683;28;20221;-76
2021/03/08 10:32:49;;;;;;;4.32;2.20;;;30.70;21.40;;;;;;4942435;29;20237;-72
2021/03/08 10:35:16;;;;;;;3.70;2.25;;;27.60;22.70;;;;;;4943718;28;20248;-73
2021/03/08 10:37:43;;;;;;;4.35;2.10;;;24.50;24.60;;;;;;4947758;28;20209;-73
2021/03/08 10:40:11;;;;;;;5.40;2.10;;;22.80;26.60;;;;;;4948937;28;20217;-72
2021/03/08 10:42:39;;;;;;;3.05;1.83;;;22.30;27.10;;;;;;4951030;28;20292;-73
2021/03/08 10:45:09;;;;;;;4.45;1.90;;;21.00;26.40;;;;;;4944725;28;20242;-72
2021/03/08 10:47:35;;;;;;;2.58;1.50;;;19.10;27.40;;;;;;4948195;29;20217;-72
2021/03/08 10:50:03;;;;;;;2.23;1.30;;;17.40;28.50;;;;;;4947320;28;20342;-72
2021/03/08 10:52:29;;;;;;;6.07;2.00;;;15.90;29.20;;;;;;4944811;28;20216;-72
2021/03/08 10:54:57;;;;;;;2.37;1.30;;;14.60;30.20;;;;;;4942299;29;20217;-72
2021/03/08 10:57:25;;;;;;;3.13;1.40;;;13.30;31.40;;;;;;4946113;28;20269;-72
2021/03/08 10:59:53;;;;;;;3.40;1.97;;;12.10;32.80;;;;;;4949329;28;20238;-71
2021/03/08 11:02:20;;;;;;;3.63;1.53;;;11.10;34.40;;;;;;4940396;29;20206;-72
2021/03/08 11:04:48;;;;;;;2.50;1.30;;;10.10;35.70;;;;;;4939911;29;20210;-71
2021/03/08 11:07:15;;;;;;;2.70;1.57;;;9.40;38.20;;;;;;4951176;28;20237;-71
2021/03/08 11:09:46;;;;;;;3.10;1.50;;;8.80;39.90;;;;;;4948694;28;20260;-71
2021/03/08 11:12:24;;;;;;;5.43;1.80;;;8.30;41.40;;;;;;4943938;29;20198;-72
2021/03/08 11:14:52;;;;;;;3.87;1.53;;;8.00;42.40;;;;;;4941907;28;20233;-70
2021/03/08 11:17:33;;;;;;;2.83;1.43;;;7.70;42.60;;;;;;4941924;29;20219;-71
2021/03/08 11:20:05;;;;;;;2.97;1.50;;;7.30;43.20;;;;;;4939540;28;20241;-70
2021/03/08 11:22:32;;;;;;;4.13;1.87;;;6.90;44.80;;;;;;4940182;28;20213;-72
2021/03/08 11:24:58;;;;;;;6.10;1.50;;;6.50;46.00;;;;;;4941514;29;20209;-71
2021/03/08 11:27:27;;;;;;;4.90;1.50;;;6.30;47.00;;;;;;4944495;29;20240;-71
2021/03/08 11:29:59;;;;;;;2.23;1.20;;;6.10;48.50;;;;;;4943117;28;20269;-71
2021/03/08 11:32:27;;;;;;;3.23;1.57;;;6.00;49.60;;;;;;4941581;28;20679;-71
2021/03/08 11:34:54;;;;;;;4.17;1.67;;;5.90;49.60;;;;;;4946744;28;20213;-74
2021/03/08 11:37:22;;;;;;;5.13;2.17;;;5.70;49.30;;;;;;4942574;28;20308;-71
2021/03/08 11:39:50;;;;;;;2.93;1.43;;;5.60;49.60;;;;;;4950980;28;20210;-74
2021/03/08 11:42:19;;;;;;;3.73;1.80;;;5.50;50.00;;;;;;4943657;29;20314;-70
2021/03/08 11:44:48;;;;;;;3.33;1.77;;;5.50;50.20;;;;;;4949698;28;20224;-70
2021/03/08 11:47:15;;;;;;;5.87;1.93;;;5.40;50.30;;;;;;4949886;28;20224;-68
2021/03/08 11:49:41;;;;;;;3.23;1.80;;;5.20;50.70;;;;;;4954846;28;20733;-69
2021/03/08 11:52:08;;;;;;;3.70;1.97;;;5.10;51.10;;;;;;4946253;28;20206;-69
2021/03/08 11:54:35;;;;;;;3.87;1.93;;;5.00;51.70;;;;;;4944381;28;20308;-70
2021/03/08 11:57:03;;;;;;;2.80;1.83;;;4.80;52.00;;;;;;4947970;28;20716;-67
2021/03/08 11:59:29;;;;;;;5.83;2.20;;;4.60;53.00;;;;;;4951652;28;20202;-69
2021/03/08 12:01:57;;;;;;;4.97;1.90;;;4.50;54.00;;;;;;4946842;28;20670;-72
2021/03/08 12:04:23;;;;;;;6.30;2.17;;;4.30;55.00;;;;;;4952404;28;20648;-73
2021/03/08 12:06:50;;;;;;;4.20;1.90;;;4.30;56.40;;;;;;4955314;28;20209;-68
2021/03/08 12:09:17;;;;;;;4.87;2.00;;;4.30;56.70;;;;;;4950977;28;20264;-70
2021/03/08 12:11:43;;;;;;;3.53;2.40;;;4.40;57.80;;;;;;4951006;28;20209;-69
2021/03/08 12:14:09;;;;;;;4.57;2.17;;;4.90;64.90;;;;;;4945947;28;20229;-71
2021/03/08 12:16:36;;;;;;;2.70;1.80;;;5.50;59.50;;;;;;4941138;28;20217;-71
2021/03/08 12:19:03;;;;;;;2.50;1.97;;;5.90;57.80;;;;;;4941949;28;20247;-71
2021/03/08 12:21:30;;;;;;;5.63;2.00;;;6.00;56.40;;;;;;4942871;28;20690;-70
2021/03/08 12:23:57;;;;;;;3.30;1.90;;;6.10;55.50;;;;;;4952152;29;20318;-69
2021/03/08 12:26:24;;;;;;;4.43;1.80;;;6.00;54.60;;;;;;4949577;28;20328;-71
2021/03/08 12:28:50;;;;;;;2.53;1.47;;;5.90;53.80;;;;;;4947920;28;20217;-70
2021/03/08 12:31:19;;;;;;;2.43;1.80;;;5.70;53.20;;;;;;4945335;28;20657;-70
2021/03/08 12:33:46;;;;;;;3.67;1.50;;;5.50;53.20;;;;;;4939926;29;20218;-72
2021/03/08 12:36:13;;;;;;;2.80;1.30;;;5.30;54.40;;;;;;4944476;28;20214;-71
2021/03/08 12:38:39;;;;;;;3.30;1.90;;;5.10;57.40;;;;;;4947857;28;20209;-70
2021/03/08 12:41:06;;;;;;;4.13;1.93;;;4.90;60.40;;;;;;4951560;28;20206;-69
2021/03/08 12:43:33;;;;;;;3.07;1.40;;;4.60;64.10;;;;;;4957405;28;20296;-69
2021/03/08 12:45:59;;;;;;;1.77;1.10;;;4.40;69.60;;;;;;4946475;28;20683;-73
2021/03/08 12:48:27;;;;;;;2.87;1.40;;;4.20;77.40;;;;;;4948324;28;20240;-74
2021/03/08 12:50:53;;;;;;;1.47;1.13;;;3.90;86.30;;;;;;4955840;28;20696;-73
2021/03/08 12:53:22;;;;;;;2.87;1.40;;;3.70;91.50;;;;;;4957903;28;20225;-75
2021/03/08 12:55:49;;;;;;;2.03;1.03;;;3.70;94.50;;;;;;4953205;28;20205;-72
2021/03/08 12:58:15;;;;;;;2.57;1.27;;;3.70;95.40;;;;;;4951070;28;20213;-74
2021/03/08 13:00:42;;;;;;;3.53;1.20;;;3.60;96.00;;;;;;4958649;28;20571;-74
2021/03/08 13:03:08;;;;;;;1.67;1.00;;;3.70;97.10;;;;;;4954975;28;20213;-73
2021/03/08 13:05:34;;;;;;;2.17;1.20;;;3.90;99.90;;;;;;4953992;28;20349;-75
2021/03/08 13:08:01;;;;;;;7.90;4.50;;;6.90;99.90;;;;;;4952582;28;20202;-77
2021/03/08 13:10:29;;;;;;;6.27;2.60;;;11.20;94.70;;;;;;4954114;28;20253;-75